Time;durP1;ratioP1;P1;durP2;ratioP2;P2;SDS_P1;SDS_P2;PMS_P1;PMS_P2;Temp;Humidity;BMP_temperature;BMP_pressure;BME280_temperature;BME280_humidity;BME280_pressure;Samples;Min_cycle;Max_cycle;Signal;HPM_P1;HPM_P2
2022/09/17 00:01:26;;;;;;;1.20;1.10;;;;;12.90;98523.00;;;;16576984;28;20322;-46
2022/09/17 00:09:28;;;;;;;1.40;1.30;;;;;12.90;98521.00;;;;16579240;28;20286;-47
2022/09/17 00:17:32;;;;;;;1.50;1.40;;;;;12.80;98518.00;;;;16579981;28;20727;-46
2022/09/17 00:25:37;;;;;;;1.40;1.20;;;;;12.60;98521.00;;;;16580512;28;20224;-46
2022/09/17 00:33:41;;;;;;;3.83;1.50;;;;;12.60;98516.00;;;;16579628;28;20222;-46
2022/09/17 00:41:44;;;;;;;2.00;1.37;;;;;12.60;98526.00;;;;16576321;28;20299;-46
2022/09/17 00:49:48;;;;;;;1.60;1.07;;;;;13.00;98515.00;;;;16581441;28;20223;-46
2022/09/17 00:57:52;;;;;;;1.70;1.60;;;;;13.50;98516.00;;;;16580647;28;20258;-46
2022/09/17 01:06:05;;;;;;;1.33;1.23;;;;;13.00;98531.00;;;;16581259;28;20737;-46
2022/09/17 01:14:19;;;;;;;1.73;1.40;;;;;12.60;98528.00;;;;16574890;28;20590;-46
2022/09/17 01:22:28;;;;;;;2.50;1.40;;;;;12.70;98538.00;;;;16576193;28;20325;-46
2022/09/17 01:30:39;;;;;;;3.90;1.47;;;;;12.30;98548.00;;;;16580315;28;20231;-46
2022/09/17 01:38:47;;;;;;;3.33;1.70;;;;;12.30;98547.00;;;;16591612;28;20227;-46
2022/09/17 01:46:54;;;;;;;2.20;1.60;;;;;12.20;98549.00;;;;16595103;28;20221;-46
2022/09/17 01:54:59;;;;;;;2.00;1.43;;;;;12.30;98551.00;;;;16597143;28;20208;-46
2022/09/17 02:03:07;;;;;;;5.30;2.00;;;;;12.50;98558.00;;;;16596290;28;20318;-46
2022/09/17 02:11:13;;;;;;;3.13;1.67;;;;;12.40;98559.00;;;;16601130;28;20219;-46
2022/09/17 02:19:20;;;;;;;3.77;2.10;;;;;12.30;98564.00;;;;16599698;28;20711;-46
2022/09/17 02:27:27;;;;;;;1.77;1.67;;;;;12.50;98557.00;;;;16600181;28;20251;-46
2022/09/17 02:35:33;;;;;;;2.80;2.07;;;;;12.50;98545.00;;;;16588021;28;20732;-46
2022/09/17 02:43:41;;;;;;;2.13;1.93;;;;;12.70;98543.00;;;;16593724;28;20263;-46
2022/09/17 02:51:56;;;;;;;1.83;1.73;;;;;12.60;98543.00;;;;16588252;28;20265;-47
2022/09/17 03:00:05;;;;;;;2.77;1.60;;;;;12.70;98536.00;;;;16587307;28;20244;-46
2022/09/17 03:08:13;;;;;;;4.23;2.00;;;;;12.70;98524.00;;;;16581562;28;20808;-46
2022/09/17 03:16:15;;;;;;;2.30;1.67;;;;;12.80;98526.00;;;;16585803;28;20748;-47
2022/09/17 03:24:19;;;;;;;2.83;1.40;;;;;12.50;98543.00;;;;16581625;28;20235;-47
2022/09/17 03:32:22;;;;;;;2.13;1.90;;;;;12.30;98542.00;;;;16581161;28;20320;-46
2022/09/17 03:40:26;;;;;;;2.70;2.03;;;;;12.20;98558.00;;;;16586326;28;20266;-46
2022/09/17 03:48:29;;;;;;;2.10;2.00;;;;;12.20;98564.00;;;;16586307;28;20277;-46
2022/09/17 03:56:33;;;;;;;3.30;2.33;;;;;11.90;98564.00;;;;16584761;28;20210;-46
2022/09/17 04:04:35;;;;;;;10.27;2.43;;;;;11.90;98558.00;;;;16576801;28;20317;-46
2022/09/17 04:12:40;;;;;;;2.30;1.90;;;;;12.00;98570.00;;;;16578970;28;20226;-47
2022/09/17 04:20:43;;;;;;;5.97;2.07;;;;;11.90;98571.00;;;;16582515;28;20317;-46
2022/09/17 04:28:46;;;;;;;6.93;2.07;;;;;11.90;98575.00;;;;16581461;28;20223;-46
2022/09/17 04:36:49;;;;;;;4.10;2.20;;;;;11.90;98585.00;;;;16574263;28;20697;-46
2022/09/17 04:44:53;;;;;;;3.67;1.83;;;;;12.10;98599.00;;;;16582552;28;20909;-46
2022/09/17 04:52:55;;;;;;;4.77;2.43;;;;;12.10;98595.00;;;;16581197;28;20281;-46
2022/09/17 05:00:59;;;;;;;4.10;1.80;;;;;12.20;98603.00;;;;16576093;28;20238;-46
2022/09/17 05:09:02;;;;;;;2.00;1.80;;;;;12.20;98623.00;;;;16574936;28;20285;-47
2022/09/17 05:17:06;;;;;;;3.57;2.23;;;;;12.20;98620.00;;;;16580104;28;20293;-47
2022/09/17 05:25:09;;;;;;;6.83;2.50;;;;;12.40;98606.00;;;;16579227;28;20353;-47
2022/09/17 05:33:13;;;;;;;4.40;2.20;;;;;12.60;98613.00;;;;16573627;28;20230;-46
2022/09/17 05:41:15;;;;;;;3.50;2.30;;;;;12.30;98619.00;;;;16577984;28;20699;-47
2022/09/17 05:49:19;;;;;;;6.83;2.70;;;;;12.40;98616.00;;;;16576920;28;20830;-46
2022/09/17 05:57:22;;;;;;;6.87;2.20;;;;;12.10;98623.00;;;;16576499;28;20215;-46
2022/09/17 06:05:26;;;;;;;2.57;2.20;;;;;12.20;98639.00;;;;16568654;28;20762;-46
2022/09/17 06:13:28;;;;;;;3.83;2.57;;;;;12.40;98644.00;;;;16577323;28;20219;-46
2022/09/17 06:21:32;;;;;;;3.30;2.60;;;;;12.50;98651.00;;;;16582580;28;20786;-46
2022/09/17 06:29:35;;;;;;;2.97;2.07;;;;;12.40;98650.00;;;;16587084;28;20373;-46
2022/09/17 06:37:39;;;;;;;6.43;2.03;;;;;12.70;98660.00;;;;16585021;28;20231;-46
2022/09/17 06:45:42;;;;;;;5.50;2.40;;;;;12.70;98664.00;;;;16584219;28;20233;-46
2022/09/17 06:53:46;;;;;;;2.93;2.10;;;;;12.90;98674.00;;;;16576465;28;20220;-46
2022/09/17 07:01:49;;;;;;;4.60;2.60;;;;;13.10;98676.00;;;;16568296;28;20765;-46
2022/09/17 07:09:53;;;;;;;5.90;2.43;;;;;13.00;98674.00;;;;16580916;28;20265;-46
2022/09/17 07:17:55;;;;;;;7.37;2.30;;;;;13.00;98683.00;;;;16570474;28;20253;-46
2022/09/17 07:26:00;;;;;;;4.40;2.40;;;;;12.60;98701.00;;;;16577174;28;20681;-47
2022/09/17 07:34:03;;;;;;;5.40;2.30;;;;;12.40;98706.00;;;;16569139;28;20904;-46
2022/09/17 07:42:07;;;;;;;4.30;3.73;;;;;12.30;98718.00;;;;16583074;28;20223;-47
2022/09/17 07:50:10;;;;;;;7.17;3.40;;;;;12.30;98722.00;;;;16581000;28;20221;-46
2022/09/17 07:58:14;;;;;;;4.47;3.27;;;;;12.20;98735.00;;;;16583948;28;20254;-47
2022/09/17 08:06:18;;;;;;;4.33;3.23;;;;;12.20;98744.00;;;;16573468;28;20219;-46
2022/09/17 08:14:22;;;;;;;6.47;2.90;;;;;12.40;98750.00;;;;16567624;28;20227;-46
2022/09/17 08:22:24;;;;;;;12.00;3.17;;;;;12.50;98756.00;;;;16565783;28;20661;-46
2022/09/17 08:30:30;;;;;;;3.70;2.80;;;;;12.80;98744.00;;;;16572915;28;20228;-46
2022/09/17 08:38:36;;;;;;;4.70;2.73;;;;;12.80;98743.00;;;;16564743;28;20307;-46
2022/09/17 08:46:43;;;;;;;3.43;2.97;;;;;13.20;98739.00;;;;16572798;28;20731;-46
2022/09/17 08:54:53;;;;;;;7.10;2.83;;;;;13.20;98745.00;;;;16553155;28;20214;-47
2022/09/17 09:03:10;;;;;;;2.90;2.57;;;;;13.70;98740.00;;;;16587608;28;20302;-47
2022/09/17 09:11:15;;;;;;;4.77;2.47;;;;;13.90;98741.00;;;;16586835;28;20297;-47
2022/09/17 09:19:23;;;;;;;13.33;3.30;;;;;13.90;98726.00;;;;16582617;28;20240;-47
2022/09/17 09:27:28;;;;;;;4.67;2.60;;;;;14.00;98723.00;;;;16582031;28;20230;-47
2022/09/17 09:35:34;;;;;;;7.30;2.80;;;;;14.10;98733.00;;;;16559454;28;20642;-47
2022/09/17 09:43:41;;;;;;;10.77;3.40;;;;;14.50;98718.00;;;;16587624;28;20561;-47
2022/09/17 09:51:54;;;;;;;9.07;2.87;;;;;14.20;98726.00;;;;16571053;28;20217;-47
2022/09/17 10:00:25;;;;;;;6.07;3.00;;;;;14.50;98732.00;;;;16579748;28;20300;-47
2022/09/17 10:08:31;;;;;;;3.83;2.43;;;;;14.20;98729.00;;;;16576339;28;20230;-47
2022/09/17 10:16:35;;;;;;;6.63;2.43;;;;;14.30;98733.00;;;;16571427;28;20206;-47
2022/09/17 10:24:39;;;;;;;6.27;2.20;;;;;14.70;98724.00;;;;16578172;28;20236;-47
2022/09/17 10:32:42;;;;;;;10.60;3.37;;;;;15.50;98705.00;;;;16569715;28;20234;-46
2022/09/17 10:40:45;;;;;;;5.47;2.40;;;;;15.20;98697.00;;;;16593556;28;20797;-47
2022/09/17 10:48:58;;;;;;;6.20;2.47;;;;;15.70;98687.00;;;;16588317;28;20366;-47
2022/09/17 10:57:02;;;;;;;7.93;3.03;;;;;16.00;98683.00;;;;16586164;28;20237;-47
2022/09/17 11:05:33;;;;;;;5.50;2.20;;;;;16.50;98676.00;;;;16586258;28;20449;-47
2022/09/17 11:13:40;;;;;;;4.87;1.90;;;;;16.50;98656.00;;;;16598003;28;20345;-47
2022/09/17 11:21:45;;;;;;;5.63;2.07;;;;;16.80;98667.00;;;;16591814;28;20235;-47
2022/09/17 11:30:02;;;;;;;3.70;1.73;;;;;16.40;98671.00;;;;16591589;28;20251;-47
2022/09/17 11:38:10;;;;;;;1.90;1.73;;;;;17.50;98656.00;;;;16599188;28;20211;-47
2022/09/17 11:46:18;;;;;;;4.07;1.70;;;;;17.60;98656.00;;;;16573832;28;20346;-47
2022/09/17 11:54:25;;;;;;;3.20;1.30;;;;;16.90;98655.00;;;;16568900;28;20219;-47
2022/09/17 12:02:39;;;;;;;3.00;1.53;;;;;16.90;98642.00;;;;16572359;28;20286;-46
2022/09/17 12:10:48;;;;;;;3.30;1.80;;;;;17.90;98616.00;;;;16584538;28;20596;-47
2022/09/17 12:18:57;;;;;;;3.20;1.70;;;;;17.00;98619.00;;;;16570876;28;20230;-47
2022/09/17 12:27:13;;;;;;;6.53;2.03;;;;;15.50;98650.00;;;;16567213;28;20581;-45
2022/09/17 12:35:41;;;;;;;5.40;2.60;;;;;15.10;98664.00;;;;16564832;28;20290;-46
2022/09/17 12:43:56;;;;;;;6.80;2.43;;;;;15.00;98664.00;;;;16576134;28;20780;-46
2022/09/17 12:52:01;;;;;;;3.30;2.40;;;;;16.30;98640.00;;;;16573398;28;20366;-47
2022/09/17 13:00:07;;;;;;;2.53;1.27;;;;;15.00;98655.00;;;;16564016;28;20249;-46
2022/09/17 13:08:40;;;;;;;1.93;1.20;;;;;14.80;98668.00;;;;16551558;28;20587;-46
2022/09/17 13:16:46;;;;;;;3.30;1.80;;;;;15.20;98699.00;;;;16565165;28;20665;-46
2022/09/17 13:25:05;;;;;;;3.43;1.30;;;;;14.10;98721.00;;;;16553681;28;20227;-46
2022/09/17 13:33:09;;;;;;;1.87;1.07;;;;;14.10;98716.00;;;;16561658;28;20214;-47
2022/09/17 13:41:23;;;;;;;1.63;0.80;;;;;13.80;98702.00;;;;16590307;28;20212;-46
2022/09/17 13:49:25;;;;;;;1.20;1.10;;;;;14.70;98704.00;;;;16575571;28;20225;-47
2022/09/17 13:57:32;;;;;;;2.13;1.30;;;;;15.80;98683.00;;;;16570373;28;20703;-46
2022/09/17 14:05:38;;;;;;;0.87;0.87;;;;;16.20;98681.00;;;;16565140;28;20233;-47
2022/09/17 14:13:45;;;;;;;1.30;1.20;;;;;16.10;98682.00;;;;16567487;28;20251;-47
2022/09/17 14:21:59;;;;;;;3.77;1.50;;;;;16.50;98685.00;;;;16575627;28;20306;-47
2022/09/17 14:30:15;;;;;;;6.60;1.70;;;;;17.30;98665.00;;;;16560123;28;20301;-47
2022/09/17 14:38:22;;;;;;;3.23;1.60;;;;;17.00;98664.00;;;;16549898;28;20207;-47
2022/09/17 14:46:29;;;;;;;3.90;1.40;;;;;17.70;98670.00;;;;16562820;28;20496;-47
2022/09/17 14:54:43;;;;;;;2.10;1.17;;;;;17.60;98662.00;;;;16578410;28;20281;-46
2022/09/17 15:02:52;;;;;;;3.57;1.80;;;;;16.40;98678.00;;;;16585828;28;20203;-47
2022/09/17 15:10:58;;;;;;;1.80;1.50;;;;;16.60;98667.00;;;;16582940;28;20238;-47
2022/09/17 15:19:03;;;;;;;3.00;1.20;;;;;17.20;98660.00;;;;16599285;28;20223;-47
2022/09/17 15:27:13;;;;;;;5.10;1.80;;;;;16.30;98654.00;;;;16587174;28;20219;-47
2022/09/17 15:35:27;;;;;;;4.17;1.70;;;;;16.20;98666.00;;;;16595814;28;20234;-47
2022/09/17 15:43:33;;;;;;;3.73;1.97;;;;;16.20;98665.00;;;;16602683;28;20626;-47
2022/09/17 15:51:37;;;;;;;6.03;1.90;;;;;16.80;98665.00;;;;16589815;28;20228;-47
2022/09/17 15:59:40;;;;;;;4.00;2.20;;;;;16.50;98663.00;;;;16581859;28;20251;-47
2022/09/17 16:07:45;;;;;;;4.83;1.80;;;;;16.90;98664.00;;;;16554021;28;20270;-47
2022/09/17 16:15:48;;;;;;;1.63;1.53;;;;;16.00;98661.00;;;;16548691;28;20223;-47
2022/09/17 16:23:52;;;;;;;2.50;1.87;;;;;16.40;98670.00;;;;16552258;28;20700;-47
2022/09/17 16:31:55;;;;;;;5.47;1.73;;;;;17.50;98665.00;;;;16555349;28;20302;-47
2022/09/17 16:39:59;;;;;;;3.37;1.30;;;;;17.50;98668.00;;;;16555451;28;20230;-47
2022/09/17 16:48:02;;;;;;;4.87;2.20;;;;;16.60;98670.00;;;;16553373;28;20226;-47
2022/09/17 16:56:08;;;;;;;4.37;2.60;;;;;16.30;98678.00;;;;16544286;28;20796;-47
2022/09/17 17:04:11;;;;;;;4.10;1.70;;;;;15.90;98676.00;;;;16557176;28;20223;-46
2022/09/17 17:12:15;;;;;;;3.97;2.30;;;;;16.00;98679.00;;;;16555175;28;20235;-47
2022/09/17 17:20:17;;;;;;;2.63;2.43;;;;;15.70;98711.00;;;;16579370;28;20781;-46
2022/09/17 17:28:21;;;;;;;6.37;3.93;;;;;14.70;98720.00;;;;16557882;28;20231;-47
2022/09/17 17:36:24;;;;;;;3.27;2.97;;;;;14.30;98721.00;;;;16570301;28;20552;-47
2022/09/17 17:44:27;;;;;;;3.13;2.80;;;;;14.40;98714.00;;;;16561378;28;20304;-47
2022/09/17 17:52:30;;;;;;;4.50;4.07;;;;;14.10;98758.00;;;;16552518;28;20339;-47
2022/09/17 18:00:34;;;;;;;4.40;4.03;;;;;14.10;98771.00;;;;16558375;28;20296;-46
2022/09/17 18:08:37;;;;;;;2.60;2.23;;;;;13.80;98764.00;;;;16566773;28;20297;-46
2022/09/17 18:16:41;;;;;;;3.27;2.50;;;;;14.40;98761.00;;;;16586836;28;20824;-46
2022/09/17 18:24:44;;;;;;;3.80;2.10;;;;;13.90;98773.00;;;;16574469;28;20369;-46
2022/09/17 18:32:50;;;;;;;4.30;2.20;;;;;13.90;98785.00;;;;16562326;28;20316;-46
2022/09/17 18:40:52;;;;;;;4.17;2.00;;;;;13.50;98792.00;;;;16558919;28;20232;-47
2022/09/17 18:48:57;;;;;;;1.37;1.27;;;;;13.60;98798.00;;;;16563114;28;20828;-46
2022/09/17 18:57:00;;;;;;;2.20;1.80;;;;;13.40;98810.00;;;;16555734;28;20193;-46
2022/09/17 19:05:04;;;;;;;2.77;2.33;;;;;13.90;98816.00;;;;16557376;28;20359;-46
2022/09/17 19:13:06;;;;;;;4.47;2.63;;;;;13.30;98845.00;;;;16558944;28;20702;-46
2022/09/17 19:21:12;;;;;;;1.77;1.60;;;;;12.90;98921.00;;;;16583859;28;20789;-46
2022/09/17 19:29:14;;;;;;;1.90;1.10;;;;;12.00;98871.00;;;;16592745;28;20703;-44
2022/09/17 19:37:18;;;;;;;2.73;1.20;;;;;12.00;98891.00;;;;16571088;28;20227;-45
2022/09/17 19:45:21;;;;;;;8.63;1.63;;;;;11.80;98876.00;;;;16564206;28;20244;-45
2022/09/17 19:53:27;;;;;;;1.03;0.93;;;;;11.80;98888.00;;;;16558972;28;20254;-45
2022/09/17 20:01:30;;;;;;;3.57;1.47;;;;;11.60;98908.00;;;;16578841;28;20298;-45
2022/09/17 20:09:36;;;;;;;2.30;1.47;;;;;11.60;98910.00;;;;16587368;28;20700;-45
2022/09/17 20:17:38;;;;;;;4.30;1.53;;;;;11.70;98919.00;;;;16561982;28;20773;-46
2022/09/17 20:25:43;;;;;;;2.80;1.50;;;;;11.90;98918.00;;;;16552981;28;20658;-46
2022/09/17 20:33:46;;;;;;;2.30;1.67;;;;;12.10;98919.00;;;;16550449;28;20243;-46
2022/09/17 20:41:50;;;;;;;3.40;1.60;;;;;12.20;98907.00;;;;16549779;28;20712;-46
2022/09/17 20:49:54;;;;;;;1.47;1.30;;;;;12.00;98907.00;;;;16549147;28;20225;-46
2022/09/17 20:57:58;;;;;;;1.50;0.93;;;;;11.80;98922.00;;;;16549622;28;20294;-46
2022/09/17 21:06:00;;;;;;;2.30;1.27;;;;;11.90;98923.00;;;;16549954;28;20219;-46
2022/09/17 21:14:05;;;;;;;5.67;1.93;;;;;12.10;98952.00;;;;16571856;28;20250;-46
2022/09/17 21:22:07;;;;;;;2.13;1.30;;;;;12.40;98957.00;;;;16556740;28;20231;-46
2022/09/17 21:30:12;;;;;;;3.73;1.60;;;;;13.10;98957.00;;;;16581171;28;20227;-46
2022/09/17 21:38:17;;;;;;;2.53;1.67;;;;;12.70;98944.00;;;;16571998;28;20227;-46
2022/09/17 21:46:22;;;;;;;3.20;1.50;;;;;12.60;98933.00;;;;16583713;28;20499;-45
2022/09/17 21:54:24;;;;;;;1.50;1.27;;;;;12.50;98944.00;;;;16588433;28;20217;-46
2022/09/17 22:02:30;;;;;;;1.47;1.37;;;;;12.40;98949.00;;;;16585794;28;20232;-45
2022/09/17 22:10:32;;;;;;;2.40;1.60;;;;;12.40;98949.00;;;;16593878;28;20765;-45
2022/09/17 22:18:37;;;;;;;6.60;2.40;;;;;12.40;98950.00;;;;16592726;28;20258;-45
2022/09/17 22:26:42;;;;;;;3.63;2.10;;;;;12.30;98946.00;;;;16597361;28;20221;-46
2022/09/17 22:34:46;;;;;;;2.90;1.90;;;;;12.10;98954.00;;;;16603410;28;20219;-46
2022/09/17 22:42:48;;;;;;;2.80;1.80;;;;;12.20;98937.00;;;;16603325;28;20223;-45
2022/09/17 22:50:53;;;;;;;3.90;2.10;;;;;12.30;98939.00;;;;16602476;28;20223;-46
2022/09/17 22:58:57;;;;;;;2.20;1.90;;;;;12.50;98923.00;;;;16597647;28;20561;-46
2022/09/17 23:07:01;;;;;;;5.03;2.50;;;;;12.40;98925.00;;;;16597056;28;20227;-46
2022/09/17 23:15:04;;;;;;;2.20;2.10;;;;;12.60;98935.00;;;;16588868;28;20195;-45
2022/09/17 23:23:08;;;;;;;3.07;1.87;;;;;12.50;98944.00;;;;16598025;28;20346;-46
2022/09/17 23:31:12;;;;;;;4.10;2.20;;;;;12.40;98949.00;;;;16606001;28;20258;-47
2022/09/17 23:39:16;;;;;;;2.40;1.80;;;;;12.60;98943.00;;;;16597470;28;20913;-46
2022/09/17 23:47:18;;;;;;;4.57;2.20;;;;;12.70;98944.00;;;;16589549;28;20780;-46
2022/09/17 23:55:22;;;;;;;7.03;2.37;;;;;13.40;98934.00;;;;16582912;28;20745;-46
